sensor_id;sensor_type;location;lat;lon;timestamp;P1;durP1;ratioP1;P2;durP2;ratioP2
78508;SDS011;67802;50.846;7.958;2024-02-21T00:01:25;4.60;;;1.40;;
78508;SDS011;67802;50.846;7.958;2024-02-21T00:03:50;2.53;;;1.00;;
78508;SDS011;67802;50.846;7.958;2024-02-21T00:06:16;2.95;;;1.00;;
78508;SDS011;67802;50.846;7.958;2024-02-21T00:08:41;3.38;;;1.20;;
78508;SDS011;67802;50.846;7.958;2024-02-21T00:11:06;2.77;;;1.00;;
78508;SDS011;67802;50.846;7.958;2024-02-21T00:13:32;3.78;;;1.25;;
78508;SDS011;67802;50.846;7.958;2024-02-21T00:15:57;3.78;;;1.30;;
78508;SDS011;67802;50.846;7.958;2024-02-21T00:18:23;2.47;;;0.90;;
78508;SDS011;67802;50.846;7.958;2024-02-21T00:20:48;2.55;;;1.00;;
78508;SDS011;67802;50.846;7.958;2024-02-21T00:23:13;3.03;;;1.08;;
78508;SDS011;67802;50.846;7.958;2024-02-21T00:25:39;2.37;;;1.20;;
78508;SDS011;67802;50.846;7.958;2024-02-21T00:28:04;1.92;;;0.90;;
78508;SDS011;67802;50.846;7.958;2024-02-21T00:30:31;3.08;;;1.10;;
78508;SDS011;67802;50.846;7.958;2024-02-21T00:32:56;3.15;;;1.10;;
78508;SDS011;67802;50.846;7.958;2024-02-21T00:35:21;2.70;;;1.00;;
78508;SDS011;67802;50.846;7.958;2024-02-21T00:37:47;4.20;;;1.42;;
78508;SDS011;67802;50.846;7.958;2024-02-21T00:40:12;2.73;;;1.00;;
78508;SDS011;67802;50.846;7.958;2024-02-21T00:42:37;2.38;;;0.90;;
78508;SDS011;67802;50.846;7.958;2024-02-21T00:45:03;3.00;;;1.07;;
78508;SDS011;67802;50.846;7.958;2024-02-21T00:47:28;4.00;;;1.15;;
78508;SDS011;67802;50.846;7.958;2024-02-21T00:49:54;4.32;;;1.30;;
78508;SDS011;67802;50.846;7.958;2024-02-21T00:52:20;4.10;;;1.40;;
78508;SDS011;67802;50.846;7.958;2024-02-21T00:54:45;2.53;;;0.93;;
78508;SDS011;67802;50.846;7.958;2024-02-21T00:57:11;3.45;;;1.20;;
78508;SDS011;67802;50.846;7.958;2024-02-21T00:59:36;3.37;;;1.17;;
78508;SDS011;67802;50.846;7.958;2024-02-21T01:02:02;3.92;;;1.08;;
78508;SDS011;67802;50.846;7.958;2024-02-21T01:04:27;2.40;;;0.90;;
78508;SDS011;67802;50.846;7.958;2024-02-21T01:06:52;3.08;;;1.30;;
78508;SDS011;67802;50.846;7.958;2024-02-21T01:09:18;4.83;;;1.20;;
78508;SDS011;67802;50.846;7.958;2024-02-21T01:11:43;2.43;;;1.00;;
78508;SDS011;67802;50.846;7.958;2024-02-21T01:14:08;2.97;;;1.03;;
78508;SDS011;67802;50.846;7.958;2024-02-21T01:16:33;4.82;;;1.30;;
78508;SDS011;67802;50.846;7.958;2024-02-21T01:18:59;2.88;;;1.10;;
78508;SDS011;67802;50.846;7.958;2024-02-21T01:21:24;3.95;;;1.25;;
78508;SDS011;67802;50.846;7.958;2024-02-21T01:23:49;2.90;;;1.20;;
78508;SDS011;67802;50.846;7.958;2024-02-21T01:26:15;2.47;;;1.17;;
78508;SDS011;67802;50.846;7.958;2024-02-21T01:28:40;3.35;;;1.13;;
78508;SDS011;67802;50.846;7.958;2024-02-21T01:31:06;3.10;;;1.35;;
78508;SDS011;67802;50.846;7.958;2024-02-21T01:33:32;4.38;;;1.10;;
78508;SDS011;67802;50.846;7.958;2024-02-21T01:36:02;3.97;;;1.20;;
78508;SDS011;67802;50.846;7.958;2024-02-21T01:38:28;3.42;;;1.20;;
78508;SDS011;67802;50.846;7.958;2024-02-21T01:40:54;3.92;;;1.27;;
78508;SDS011;67802;50.846;7.958;2024-02-21T01:43:19;3.53;;;1.10;;
78508;SDS011;67802;50.846;7.958;2024-02-21T01:45:46;4.47;;;1.23;;
78508;SDS011;67802;50.846;7.958;2024-02-21T01:48:14;4.47;;;1.30;;
78508;SDS011;67802;50.846;7.958;2024-02-21T01:50:40;3.28;;;1.10;;
78508;SDS011;67802;50.846;7.958;2024-02-21T01:53:05;5.32;;;1.27;;
78508;SDS011;67802;50.846;7.958;2024-02-21T01:55:31;3.38;;;1.13;;
78508;SDS011;67802;50.846;7.958;2024-02-21T01:57:57;2.05;;;1.00;;
78508;SDS011;67802;50.846;7.958;2024-02-21T02:00:23;4.45;;;1.38;;
78508;SDS011;67802;50.846;7.958;2024-02-21T02:02:49;3.92;;;1.17;;
78508;SDS011;67802;50.846;7.958;2024-02-21T02:05:14;4.43;;;1.20;;
78508;SDS011;67802;50.846;7.958;2024-02-21T02:07:42;2.45;;;0.98;;
78508;SDS011;67802;50.846;7.958;2024-02-21T02:10:07;4.30;;;1.20;;
78508;SDS011;67802;50.846;7.958;2024-02-21T02:12:33;3.38;;;1.10;;
78508;SDS011;67802;50.846;7.958;2024-02-21T02:15:02;3.17;;;1.05;;
78508;SDS011;67802;50.846;7.958;2024-02-21T02:17:31;2.90;;;1.10;;
78508;SDS011;67802;50.846;7.958;2024-02-21T02:19:56;3.55;;;1.30;;
78508;SDS011;67802;50.846;7.958;2024-02-21T02:22:22;3.17;;;1.15;;
78508;SDS011;67802;50.846;7.958;2024-02-21T02:24:53;3.28;;;1.20;;
78508;SDS011;67802;50.846;7.958;2024-02-21T02:27:19;4.70;;;1.25;;
78508;SDS011;67802;50.846;7.958;2024-02-21T02:29:44;2.47;;;1.10;;
78508;SDS011;67802;50.846;7.958;2024-02-21T02:32:09;2.70;;;1.10;;
78508;SDS011;67802;50.846;7.958;2024-02-21T02:34:35;3.13;;;1.00;;
78508;SDS011;67802;50.846;7.958;2024-02-21T02:37:00;3.13;;;1.10;;
78508;SDS011;67802;50.846;7.958;2024-02-21T02:39:25;3.73;;;1.20;;
78508;SDS011;67802;50.846;7.958;2024-02-21T02:41:51;4.07;;;1.23;;
78508;SDS011;67802;50.846;7.958;2024-02-21T02:44:16;4.53;;;1.27;;
78508;SDS011;67802;50.846;7.958;2024-02-21T02:46:42;3.22;;;1.30;;
78508;SDS011;67802;50.846;7.958;2024-02-21T02:49:07;3.55;;;1.40;;
78508;SDS011;67802;50.846;7.958;2024-02-21T02:51:32;3.92;;;1.10;;
78508;SDS011;67802;50.846;7.958;2024-02-21T02:53:58;2.07;;;1.00;;
78508;SDS011;67802;50.846;7.958;2024-02-21T02:56:23;2.67;;;1.20;;
78508;SDS011;67802;50.846;7.958;2024-02-21T02:58:48;4.07;;;1.30;;
78508;SDS011;67802;50.846;7.958;2024-02-21T03:01:13;3.07;;;1.03;;
78508;SDS011;67802;50.846;7.958;2024-02-21T03:03:39;3.08;;;1.20;;
78508;SDS011;67802;50.846;7.958;2024-02-21T03:06:05;3.75;;;1.35;;
78508;SDS011;67802;50.846;7.958;2024-02-21T03:08:30;4.15;;;1.17;;
78508;SDS011;67802;50.846;7.958;2024-02-21T03:10:56;3.42;;;1.27;;
78508;SDS011;67802;50.846;7.958;2024-02-21T03:13:21;4.63;;;1.23;;
78508;SDS011;67802;50.846;7.958;2024-02-21T03:15:46;2.42;;;0.93;;
78508;SDS011;67802;50.846;7.958;2024-02-21T03:18:11;3.07;;;1.00;;
78508;SDS011;67802;50.846;7.958;2024-02-21T03:20:37;4.23;;;1.00;;
78508;SDS011;67802;50.846;7.958;2024-02-21T03:23:02;3.80;;;1.20;;
78508;SDS011;67802;50.846;7.958;2024-02-21T03:25:27;4.10;;;1.30;;
78508;SDS011;67802;50.846;7.958;2024-02-21T03:27:53;3.17;;;1.17;;
78508;SDS011;67802;50.846;7.958;2024-02-21T03:30:18;3.67;;;1.10;;
78508;SDS011;67802;50.846;7.958;2024-02-21T03:32:43;3.88;;;1.30;;
78508;SDS011;67802;50.846;7.958;2024-02-21T03:35:09;3.80;;;1.25;;
78508;SDS011;67802;50.846;7.958;2024-02-21T03:37:34;2.85;;;1.17;;
78508;SDS011;67802;50.846;7.958;2024-02-21T03:40:00;4.13;;;1.20;;
78508;SDS011;67802;50.846;7.958;2024-02-21T03:42:25;2.95;;;1.20;;
78508;SDS011;67802;50.846;7.958;2024-02-21T03:44:50;4.03;;;1.58;;
78508;SDS011;67802;50.846;7.958;2024-02-21T03:47:16;3.70;;;1.20;;
78508;SDS011;67802;50.846;7.958;2024-02-21T03:49:41;3.90;;;1.50;;
78508;SDS011;67802;50.846;7.958;2024-02-21T03:52:07;4.05;;;1.52;;
78508;SDS011;67802;50.846;7.958;2024-02-21T03:54:33;3.65;;;1.23;;
78508;SDS011;67802;50.846;7.958;2024-02-21T03:56:58;3.08;;;1.10;;
78508;SDS011;67802;50.846;7.958;2024-02-21T03:59:23;5.03;;;1.42;;
78508;SDS011;67802;50.846;7.958;2024-02-21T04:01:52;4.70;;;1.23;;
78508;SDS011;67802;50.846;7.958;2024-02-21T04:04:18;3.15;;;1.10;;
78508;SDS011;67802;50.846;7.958;2024-02-21T04:06:47;3.92;;;1.20;;
78508;SDS011;67802;50.846;7.958;2024-02-21T04:09:13;4.85;;;1.40;;
78508;SDS011;67802;50.846;7.958;2024-02-21T04:11:38;2.28;;;1.10;;
78508;SDS011;67802;50.846;7.958;2024-02-21T04:14:04;3.67;;;1.13;;
78508;SDS011;67802;50.846;7.958;2024-02-21T04:16:29;3.35;;;1.30;;
78508;SDS011;67802;50.846;7.958;2024-02-21T04:18:54;2.65;;;1.00;;
78508;SDS011;67802;50.846;7.958;2024-02-21T04:21:19;5.47;;;1.60;;
78508;SDS011;67802;50.846;7.958;2024-02-21T04:23:45;4.53;;;1.00;;
78508;SDS011;67802;50.846;7.958;2024-02-21T04:26:10;4.20;;;1.15;;
78508;SDS011;67802;50.846;7.958;2024-02-21T04:28:35;3.23;;;1.17;;
78508;SDS011;67802;50.846;7.958;2024-02-21T04:31:00;5.33;;;1.10;;
78508;SDS011;67802;50.846;7.958;2024-02-21T04:33:26;3.05;;;1.10;;
78508;SDS011;67802;50.846;7.958;2024-02-21T04:35:51;3.20;;;1.00;;
78508;SDS011;67802;50.846;7.958;2024-02-21T04:38:19;4.47;;;1.30;;
78508;SDS011;67802;50.846;7.958;2024-02-21T04:40:45;3.67;;;1.13;;
78508;SDS011;67802;50.846;7.958;2024-02-21T04:43:10;3.43;;;1.30;;
78508;SDS011;67802;50.846;7.958;2024-02-21T04:45:35;3.07;;;1.23;;
78508;SDS011;67802;50.846;7.958;2024-02-21T04:48:01;4.20;;;1.30;;
78508;SDS011;67802;50.846;7.958;2024-02-21T04:50:26;3.40;;;1.10;;
78508;SDS011;67802;50.846;7.958;2024-02-21T04:52:52;4.50;;;1.20;;
78508;SDS011;67802;50.846;7.958;2024-02-21T04:55:17;3.22;;;1.00;;
78508;SDS011;67802;50.846;7.958;2024-02-21T04:57:42;2.85;;;1.17;;
78508;SDS011;67802;50.846;7.958;2024-02-21T05:00:08;2.83;;;1.00;;
78508;SDS011;67802;50.846;7.958;2024-02-21T05:02:34;2.03;;;0.93;;
78508;SDS011;67802;50.846;7.958;2024-02-21T05:04:59;4.43;;;1.10;;
78508;SDS011;67802;50.846;7.958;2024-02-21T05:07:25;3.60;;;1.20;;
78508;SDS011;67802;50.846;7.958;2024-02-21T05:09:50;1.88;;;0.90;;
78508;SDS011;67802;50.846;7.958;2024-02-21T05:12:16;3.45;;;1.00;;
78508;SDS011;67802;50.846;7.958;2024-02-21T05:14:41;2.95;;;1.00;;
78508;SDS011;67802;50.846;7.958;2024-02-21T05:17:06;3.27;;;1.07;;
78508;SDS011;67802;50.846;7.958;2024-02-21T05:19:31;3.67;;;1.02;;
78508;SDS011;67802;50.846;7.958;2024-02-21T05:21:58;3.42;;;1.10;;
78508;SDS011;67802;50.846;7.958;2024-02-21T05:24:23;4.13;;;1.25;;
78508;SDS011;67802;50.846;7.958;2024-02-21T05:26:49;4.22;;;1.27;;
78508;SDS011;67802;50.846;7.958;2024-02-21T05:29:14;2.97;;;1.00;;
78508;SDS011;67802;50.846;7.958;2024-02-21T05:31:54;2.92;;;1.10;;
78508;SDS011;67802;50.846;7.958;2024-02-21T05:34:22;2.60;;;1.00;;
78508;SDS011;67802;50.846;7.958;2024-02-21T05:36:47;2.50;;;1.00;;
78508;SDS011;67802;50.846;7.958;2024-02-21T05:39:14;3.90;;;1.15;;
78508;SDS011;67802;50.846;7.958;2024-02-21T05:41:40;3.60;;;1.10;;
78508;SDS011;67802;50.846;7.958;2024-02-21T05:44:05;3.05;;;1.08;;
78508;SDS011;67802;50.846;7.958;2024-02-21T05:46:31;3.17;;;1.05;;
78508;SDS011;67802;50.846;7.958;2024-02-21T05:48:56;1.90;;;0.90;;
78508;SDS011;67802;50.846;7.958;2024-02-21T05:51:22;3.33;;;1.00;;
78508;SDS011;67802;50.846;7.958;2024-02-21T05:53:47;3.00;;;1.05;;
78508;SDS011;67802;50.846;7.958;2024-02-21T05:56:13;2.23;;;1.03;;
78508;SDS011;67802;50.846;7.958;2024-02-21T05:58:39;3.10;;;1.10;;
78508;SDS011;67802;50.846;7.958;2024-02-21T06:01:05;3.08;;;1.00;;
78508;SDS011;67802;50.846;7.958;2024-02-21T06:03:31;3.20;;;1.00;;
78508;SDS011;67802;50.846;7.958;2024-02-21T06:05:57;2.92;;;0.98;;
78508;SDS011;67802;50.846;7.958;2024-02-21T06:08:23;2.75;;;1.00;;
78508;SDS011;67802;50.846;7.958;2024-02-21T06:10:49;2.60;;;1.10;;
78508;SDS011;67802;50.846;7.958;2024-02-21T06:13:17;2.72;;;0.90;;
78508;SDS011;67802;50.846;7.958;2024-02-21T06:15:42;2.70;;;0.93;;
78508;SDS011;67802;50.846;7.958;2024-02-21T06:18:07;3.03;;;1.02;;
78508;SDS011;67802;50.846;7.958;2024-02-21T06:20:33;3.47;;;1.23;;
78508;SDS011;67802;50.846;7.958;2024-02-21T06:23:01;3.65;;;1.33;;
78508;SDS011;67802;50.846;7.958;2024-02-21T06:25:26;2.55;;;1.08;;
78508;SDS011;67802;50.846;7.958;2024-02-21T06:27:51;3.63;;;1.10;;
78508;SDS011;67802;50.846;7.958;2024-02-21T06:30:16;2.85;;;0.90;;
78508;SDS011;67802;50.846;7.958;2024-02-21T06:32:42;3.03;;;1.00;;
78508;SDS011;67802;50.846;7.958;2024-02-21T06:35:07;2.67;;;1.00;;
78508;SDS011;67802;50.846;7.958;2024-02-21T06:37:32;4.25;;;1.15;;
78508;SDS011;67802;50.846;7.958;2024-02-21T06:39:58;2.63;;;1.00;;
78508;SDS011;67802;50.846;7.958;2024-02-21T06:42:24;2.88;;;1.00;;
78508;SDS011;67802;50.846;7.958;2024-02-21T06:44:50;2.78;;;1.02;;
78508;SDS011;67802;50.846;7.958;2024-02-21T06:47:15;3.28;;;0.90;;
78508;SDS011;67802;50.846;7.958;2024-02-21T06:49:41;2.10;;;0.90;;
78508;SDS011;67802;50.846;7.958;2024-02-21T06:52:07;2.47;;;0.80;;
78508;SDS011;67802;50.846;7.958;2024-02-21T06:54:32;3.60;;;1.20;;
78508;SDS011;67802;50.846;7.958;2024-02-21T06:56:58;3.20;;;1.05;;
78508;SDS011;67802;50.846;7.958;2024-02-21T06:59:23;3.42;;;1.13;;
78508;SDS011;67802;50.846;7.958;2024-02-21T07:01:49;2.80;;;1.00;;
78508;SDS011;67802;50.846;7.958;2024-02-21T07:04:15;1.95;;;0.90;;
78508;SDS011;67802;50.846;7.958;2024-02-21T07:06:40;3.00;;;0.85;;
78508;SDS011;67802;50.846;7.958;2024-02-21T07:09:06;3.10;;;0.93;;
78508;SDS011;67802;50.846;7.958;2024-02-21T07:11:31;2.65;;;0.90;;
78508;SDS011;67802;50.846;7.958;2024-02-21T07:13:56;3.05;;;0.93;;
78508;SDS011;67802;50.846;7.958;2024-02-21T07:16:22;2.83;;;0.90;;
78508;SDS011;67802;50.846;7.958;2024-02-21T07:18:47;3.08;;;0.93;;
78508;SDS011;67802;50.846;7.958;2024-02-21T07:21:12;2.17;;;0.93;;
78508;SDS011;67802;50.846;7.958;2024-02-21T07:23:40;3.40;;;0.98;;
78508;SDS011;67802;50.846;7.958;2024-02-21T07:26:07;2.58;;;0.80;;
78508;SDS011;67802;50.846;7.958;2024-02-21T07:28:32;2.50;;;0.97;;
78508;SDS011;67802;50.846;7.958;2024-02-21T07:30:58;2.28;;;0.80;;
78508;SDS011;67802;50.846;7.958;2024-02-21T07:33:24;3.28;;;1.00;;
78508;SDS011;67802;50.846;7.958;2024-02-21T07:35:49;2.72;;;0.90;;
78508;SDS011;67802;50.846;7.958;2024-02-21T07:38:15;3.28;;;1.10;;
78508;SDS011;67802;50.846;7.958;2024-02-21T07:40:43;2.65;;;1.10;;
78508;SDS011;67802;50.846;7.958;2024-02-21T07:43:09;3.85;;;1.10;;
78508;SDS011;67802;50.846;7.958;2024-02-21T07:45:35;3.70;;;1.00;;
78508;SDS011;67802;50.846;7.958;2024-02-21T07:48:00;3.13;;;1.00;;
78508;SDS011;67802;50.846;7.958;2024-02-21T07:50:25;3.60;;;1.30;;
78508;SDS011;67802;50.846;7.958;2024-02-21T07:52:51;3.43;;;1.00;;
78508;SDS011;67802;50.846;7.958;2024-02-21T07:55:16;2.03;;;0.98;;
78508;SDS011;67802;50.846;7.958;2024-02-21T07:57:42;2.55;;;1.20;;
78508;SDS011;67802;50.846;7.958;2024-02-21T08:00:07;2.85;;;0.90;;
78508;SDS011;67802;50.846;7.958;2024-02-21T08:02:40;2.40;;;1.00;;
78508;SDS011;67802;50.846;7.958;2024-02-21T08:05:07;2.17;;;0.80;;
78508;SDS011;67802;50.846;7.958;2024-02-21T08:07:32;2.58;;;0.90;;
78508;SDS011;67802;50.846;7.958;2024-02-21T08:09:57;3.07;;;0.93;;
78508;SDS011;67802;50.846;7.958;2024-02-21T08:12:23;2.40;;;0.97;;
78508;SDS011;67802;50.846;7.958;2024-02-21T08:14:48;2.63;;;1.00;;
78508;SDS011;67802;50.846;7.958;2024-02-21T08:17:13;2.50;;;0.90;;
78508;SDS011;67802;50.846;7.958;2024-02-21T08:19:38;3.30;;;1.00;;
78508;SDS011;67802;50.846;7.958;2024-02-21T08:22:04;2.93;;;1.00;;
78508;SDS011;67802;50.846;7.958;2024-02-21T08:24:29;4.00;;;1.00;;
78508;SDS011;67802;50.846;7.958;2024-02-21T08:26:54;3.43;;;1.00;;
78508;SDS011;67802;50.846;7.958;2024-02-21T08:29:20;2.90;;;1.00;;
78508;SDS011;67802;50.846;7.958;2024-02-21T08:31:45;2.30;;;0.93;;
78508;SDS011;67802;50.846;7.958;2024-02-21T08:34:10;2.63;;;0.95;;
78508;SDS011;67802;50.846;7.958;2024-02-21T08:36:36;2.83;;;0.90;;
78508;SDS011;67802;50.846;7.958;2024-02-21T08:39:02;2.92;;;1.10;;
78508;SDS011;67802;50.846;7.958;2024-02-21T08:41:30;2.63;;;1.00;;
78508;SDS011;67802;50.846;7.958;2024-02-21T08:43:56;3.03;;;1.10;;
78508;SDS011;67802;50.846;7.958;2024-02-21T08:46:21;2.83;;;1.00;;
78508;SDS011;67802;50.846;7.958;2024-02-21T08:48:49;3.75;;;1.15;;
78508;SDS011;67802;50.846;7.958;2024-02-21T08:51:14;3.60;;;1.30;;
78508;SDS011;67802;50.846;7.958;2024-02-21T08:53:39;3.17;;;1.20;;
78508;SDS011;67802;50.846;7.958;2024-02-21T08:56:05;2.20;;;0.80;;
78508;SDS011;67802;50.846;7.958;2024-02-21T08:58:32;3.33;;;1.15;;
78508;SDS011;67802;50.846;7.958;2024-02-21T09:00:57;2.45;;;1.00;;
78508;SDS011;67802;50.846;7.958;2024-02-21T09:03:23;2.47;;;1.00;;
78508;SDS011;67802;50.846;7.958;2024-02-21T09:05:48;1.88;;;0.93;;
78508;SDS011;67802;50.846;7.958;2024-02-21T09:08:14;3.45;;;1.10;;
78508;SDS011;67802;50.846;7.958;2024-02-21T09:10:39;4.07;;;1.10;;
78508;SDS011;67802;50.846;7.958;2024-02-21T09:13:05;4.50;;;1.02;;
78508;SDS011;67802;50.846;7.958;2024-02-21T09:15:30;3.03;;;1.13;;
78508;SDS011;67802;50.846;7.958;2024-02-21T09:17:56;2.95;;;1.10;;
78508;SDS011;67802;50.846;7.958;2024-02-21T09:20:22;3.27;;;1.23;;
78508;SDS011;67802;50.846;7.958;2024-02-21T09:22:50;2.92;;;1.17;;
78508;SDS011;67802;50.846;7.958;2024-02-21T09:25:17;3.15;;;0.90;;
78508;SDS011;67802;50.846;7.958;2024-02-21T09:27:43;3.97;;;1.00;;
78508;SDS011;67802;50.846;7.958;2024-02-21T09:30:09;2.40;;;1.00;;
78508;SDS011;67802;50.846;7.958;2024-02-21T09:32:35;2.63;;;0.93;;
78508;SDS011;67802;50.846;7.958;2024-02-21T09:35:01;2.60;;;0.93;;
78508;SDS011;67802;50.846;7.958;2024-02-21T09:37:26;3.03;;;0.82;;
78508;SDS011;67802;50.846;7.958;2024-02-21T09:39:51;3.63;;;1.03;;
78508;SDS011;67802;50.846;7.958;2024-02-21T09:42:21;3.75;;;1.20;;
78508;SDS011;67802;50.846;7.958;2024-02-21T09:44:46;3.40;;;1.13;;
78508;SDS011;67802;50.846;7.958;2024-02-21T09:47:16;3.53;;;1.10;;
78508;SDS011;67802;50.846;7.958;2024-02-21T09:49:49;2.67;;;1.10;;
78508;SDS011;67802;50.846;7.958;2024-02-21T09:52:14;3.78;;;1.00;;
78508;SDS011;67802;50.846;7.958;2024-02-21T09:54:40;2.28;;;0.95;;
78508;SDS011;67802;50.846;7.958;2024-02-21T09:57:10;3.58;;;1.10;;
78508;SDS011;67802;50.846;7.958;2024-02-21T09:59:36;3.17;;;1.02;;
78508;SDS011;67802;50.846;7.958;2024-02-21T10:02:02;2.30;;;1.05;;
78508;SDS011;67802;50.846;7.958;2024-02-21T10:04:28;3.63;;;1.20;;
78508;SDS011;67802;50.846;7.958;2024-02-21T10:06:55;2.63;;;1.05;;
78508;SDS011;67802;50.846;7.958;2024-02-21T10:09:21;3.17;;;1.10;;
78508;SDS011;67802;50.846;7.958;2024-02-21T10:11:52;3.75;;;1.27;;
78508;SDS011;67802;50.846;7.958;2024-02-21T10:14:19;2.20;;;1.00;;
78508;SDS011;67802;50.846;7.958;2024-02-21T10:16:47;2.70;;;1.02;;
78508;SDS011;67802;50.846;7.958;2024-02-21T10:19:20;2.92;;;0.95;;
78508;SDS011;67802;50.846;7.958;2024-02-21T10:22:01;2.95;;;1.00;;
78508;SDS011;67802;50.846;7.958;2024-02-21T10:24:34;3.47;;;0.75;;
78508;SDS011;67802;50.846;7.958;2024-02-21T10:27:05;2.90;;;1.00;;
78508;SDS011;67802;50.846;7.958;2024-02-21T10:29:34;3.60;;;1.30;;
78508;SDS011;67802;50.846;7.958;2024-02-21T10:32:17;2.28;;;0.80;;
78508;SDS011;67802;50.846;7.958;2024-02-21T10:34:43;3.10;;;1.10;;
78508;SDS011;67802;50.846;7.958;2024-02-21T10:37:09;2.95;;;1.15;;
78508;SDS011;67802;50.846;7.958;2024-02-21T10:39:37;4.45;;;1.00;;
78508;SDS011;67802;50.846;7.958;2024-02-21T10:42:04;2.58;;;1.17;;
78508;SDS011;67802;50.846;7.958;2024-02-21T10:44:30;3.03;;;1.30;;
78508;SDS011;67802;50.846;7.958;2024-02-21T10:46:57;2.55;;;0.95;;
78508;SDS011;67802;50.846;7.958;2024-02-21T10:49:24;1.88;;;0.90;;
78508;SDS011;67802;50.846;7.958;2024-02-21T10:51:50;3.30;;;1.33;;
78508;SDS011;67802;50.846;7.958;2024-02-21T10:54:24;4.13;;;1.30;;
78508;SDS011;67802;50.846;7.958;2024-02-21T10:56:59;4.38;;;1.13;;
78508;SDS011;67802;50.846;7.958;2024-02-21T10:59:26;3.42;;;1.20;;
78508;SDS011;67802;50.846;7.958;2024-02-21T11:01:55;4.75;;;1.45;;
78508;SDS011;67802;50.846;7.958;2024-02-21T11:04:20;4.28;;;1.27;;
78508;SDS011;67802;50.846;7.958;2024-02-21T11:06:46;3.63;;;1.20;;
78508;SDS011;67802;50.846;7.958;2024-02-21T11:09:12;4.55;;;1.40;;
78508;SDS011;67802;50.846;7.958;2024-02-21T11:11:38;2.30;;;0.98;;
78508;SDS011;67802;50.846;7.958;2024-02-21T11:14:05;3.15;;;1.10;;
78508;SDS011;67802;50.846;7.958;2024-02-21T11:16:34;2.92;;;0.88;;
78508;SDS011;67802;50.846;7.958;2024-02-21T11:19:05;2.30;;;0.90;;
78508;SDS011;67802;50.846;7.958;2024-02-21T11:21:36;2.88;;;1.10;;
78508;SDS011;67802;50.846;7.958;2024-02-21T11:24:02;2.65;;;1.10;;
78508;SDS011;67802;50.846;7.958;2024-02-21T11:26:29;2.47;;;0.93;;
78508;SDS011;67802;50.846;7.958;2024-02-21T11:28:58;3.65;;;1.17;;
78508;SDS011;67802;50.846;7.958;2024-02-21T11:31:24;5.10;;;1.45;;
78508;SDS011;67802;50.846;7.958;2024-02-21T11:33:52;4.68;;;1.42;;
78508;SDS011;67802;50.846;7.958;2024-02-21T11:36:27;3.85;;;1.30;;
78508;SDS011;67802;50.846;7.958;2024-02-21T11:38:53;4.53;;;1.33;;
78508;SDS011;67802;50.846;7.958;2024-02-21T11:41:18;3.20;;;1.10;;
78508;SDS011;67802;50.846;7.958;2024-02-21T11:43:48;4.78;;;1.58;;
78508;SDS011;67802;50.846;7.958;2024-02-21T11:46:14;3.15;;;1.02;;
78508;SDS011;67802;50.846;7.958;2024-02-21T11:48:40;4.32;;;1.20;;
78508;SDS011;67802;50.846;7.958;2024-02-21T11:51:09;4.57;;;1.52;;
78508;SDS011;67802;50.846;7.958;2024-02-21T11:53:34;4.10;;;1.30;;
78508;SDS011;67802;50.846;7.958;2024-02-21T11:56:00;4.40;;;1.37;;
78508;SDS011;67802;50.846;7.958;2024-02-21T11:58:25;4.70;;;1.40;;
78508;SDS011;67802;50.846;7.958;2024-02-21T12:00:51;4.50;;;1.30;;
78508;SDS011;67802;50.846;7.958;2024-02-21T12:03:17;5.28;;;1.10;;
78508;SDS011;67802;50.846;7.958;2024-02-21T12:05:42;4.28;;;1.40;;
78508;SDS011;67802;50.846;7.958;2024-02-21T12:08:08;4.18;;;1.40;;
78508;SDS011;67802;50.846;7.958;2024-02-21T12:10:34;3.25;;;1.30;;
78508;SDS011;67802;50.846;7.958;2024-02-21T12:13:07;3.80;;;1.48;;
78508;SDS011;67802;50.846;7.958;2024-02-21T12:15:35;3.55;;;1.23;;
78508;SDS011;67802;50.846;7.958;2024-02-21T12:18:01;4.05;;;1.38;;
78508;SDS011;67802;50.846;7.958;2024-02-21T12:20:26;3.50;;;1.20;;
78508;SDS011;67802;50.846;7.958;2024-02-21T12:22:52;3.63;;;1.25;;
78508;SDS011;67802;50.846;7.958;2024-02-21T12:25:19;5.22;;;1.50;;
78508;SDS011;67802;50.846;7.958;2024-02-21T12:27:51;2.97;;;1.20;;
78508;SDS011;67802;50.846;7.958;2024-02-21T12:30:17;4.28;;;1.30;;
78508;SDS011;67802;50.846;7.958;2024-02-21T12:32:43;3.85;;;1.38;;
78508;SDS011;67802;50.846;7.958;2024-02-21T12:35:08;4.03;;;1.33;;
78508;SDS011;67802;50.846;7.958;2024-02-21T12:37:34;3.55;;;1.13;;
78508;SDS011;67802;50.846;7.958;2024-02-21T12:39:59;3.77;;;1.10;;
78508;SDS011;67802;50.846;7.958;2024-02-21T12:42:25;3.92;;;1.15;;
78508;SDS011;67802;50.846;7.958;2024-02-21T12:44:51;4.78;;;1.25;;
78508;SDS011;67802;50.846;7.958;2024-02-21T12:47:17;4.50;;;1.23;;
78508;SDS011;67802;50.846;7.958;2024-02-21T12:49:44;3.50;;;1.20;;
78508;SDS011;67802;50.846;7.958;2024-02-21T12:52:10;4.18;;;1.30;;
78508;SDS011;67802;50.846;7.958;2024-02-21T12:54:35;3.10;;;1.20;;
78508;SDS011;67802;50.846;7.958;2024-02-21T12:57:01;3.83;;;1.27;;
78508;SDS011;67802;50.846;7.958;2024-02-21T12:59:28;2.88;;;1.10;;
78508;SDS011;67802;50.846;7.958;2024-02-21T13:01:54;4.97;;;1.30;;
78508;SDS011;67802;50.846;7.958;2024-02-21T13:04:19;4.95;;;1.38;;
78508;SDS011;67802;50.846;7.958;2024-02-21T13:06:46;3.65;;;1.30;;
78508;SDS011;67802;50.846;7.958;2024-02-21T13:09:11;4.47;;;1.35;;
78508;SDS011;67802;50.846;7.958;2024-02-21T13:11:38;3.72;;;1.20;;
78508;SDS011;67802;50.846;7.958;2024-02-21T13:14:04;3.85;;;1.27;;
78508;SDS011;67802;50.846;7.958;2024-02-21T13:16:29;3.83;;;1.25;;
78508;SDS011;67802;50.846;7.958;2024-02-21T13:18:54;4.35;;;1.40;;
78508;SDS011;67802;50.846;7.958;2024-02-21T13:21:19;4.37;;;1.40;;
78508;SDS011;67802;50.846;7.958;2024-02-21T13:23:45;4.55;;;1.50;;
78508;SDS011;67802;50.846;7.958;2024-02-21T13:26:10;4.03;;;1.40;;
78508;SDS011;67802;50.846;7.958;2024-02-21T13:28:37;3.50;;;1.10;;
78508;SDS011;67802;50.846;7.958;2024-02-21T13:31:02;2.87;;;1.20;;
78508;SDS011;67802;50.846;7.958;2024-02-21T13:33:28;4.53;;;1.20;;
78508;SDS011;67802;50.846;7.958;2024-02-21T13:35:53;3.72;;;1.33;;
78508;SDS011;67802;50.846;7.958;2024-02-21T13:38:19;4.20;;;1.35;;
78508;SDS011;67802;50.846;7.958;2024-02-21T13:40:44;3.55;;;1.35;;
78508;SDS011;67802;50.846;7.958;2024-02-21T13:43:09;3.72;;;1.30;;
78508;SDS011;67802;50.846;7.958;2024-02-21T13:45:35;3.35;;;1.10;;
78508;SDS011;67802;50.846;7.958;2024-02-21T13:48:00;4.32;;;1.27;;
78508;SDS011;67802;50.846;7.958;2024-02-21T13:50:32;3.95;;;1.40;;
78508;SDS011;67802;50.846;7.958;2024-02-21T13:52:57;3.00;;;1.15;;
78508;SDS011;67802;50.846;7.958;2024-02-21T13:55:23;3.97;;;1.42;;
78508;SDS011;67802;50.846;7.958;2024-02-21T13:57:51;5.68;;;1.60;;
78508;SDS011;67802;50.846;7.958;2024-02-21T14:00:16;4.40;;;1.58;;
78508;SDS011;67802;50.846;7.958;2024-02-21T14:02:43;5.28;;;1.48;;
78508;SDS011;67802;50.846;7.958;2024-02-21T14:05:08;3.67;;;1.33;;
78508;SDS011;67802;50.846;7.958;2024-02-21T14:07:34;3.95;;;1.33;;
78508;SDS011;67802;50.846;7.958;2024-02-21T14:10:00;5.43;;;1.90;;
78508;SDS011;67802;50.846;7.958;2024-02-21T14:12:25;5.18;;;1.50;;
78508;SDS011;67802;50.846;7.958;2024-02-21T14:14:50;5.67;;;1.90;;
78508;SDS011;67802;50.846;7.958;2024-02-21T14:17:16;5.88;;;1.80;;
78508;SDS011;67802;50.846;7.958;2024-02-21T14:19:42;5.10;;;1.90;;
78508;SDS011;67802;50.846;7.958;2024-02-21T14:22:07;6.78;;;2.22;;
78508;SDS011;67802;50.846;7.958;2024-02-21T14:24:33;6.00;;;1.92;;
78508;SDS011;67802;50.846;7.958;2024-02-21T14:26:58;6.17;;;2.10;;
78508;SDS011;67802;50.846;7.958;2024-02-21T14:29:24;6.18;;;1.73;;
78508;SDS011;67802;50.846;7.958;2024-02-21T14:31:50;6.45;;;1.80;;
78508;SDS011;67802;50.846;7.958;2024-02-21T14:34:15;6.33;;;2.20;;
78508;SDS011;67802;50.846;7.958;2024-02-21T14:36:40;6.65;;;2.08;;
78508;SDS011;67802;50.846;7.958;2024-02-21T14:39:06;6.17;;;2.00;;
78508;SDS011;67802;50.846;7.958;2024-02-21T14:41:31;6.18;;;1.80;;